JP Observations

RJAA 231000Z 33008KT 9999 FEW020 BKN040 BKN180 15/13 Q1019 NOSIG RJAA 231000Z 33008KT 9999 FEW020 BKN040 BKN180 15/13 Q1019 NOSIG RMK 1CU020 5SC040 7AC180 A3010 RJAH 231000Z 36005KT 9999 FEW040 SCT180 BKN/// 13/12 Q1019 RJBB 231000Z 29005KT 9999 -RA FEW008 SCT050 OVC080 19/16 Q1017 NOSIG RJBD 231000Z 07006KT 040V100 9999 -RA FEW025 SCT090 BKN120 19/15 Q1016 RJBE 231000Z 03007KT 9999 -RA FEW030 SCT050 OVC080 18/15 Q1017 RJCB 231000Z 15012KT 9999 FEW025 SCT060 BKN/// 11/10 Q1023 RJCC 231000Z 14013KT 9999 FEW020 BKN035 BKN/// 14/09 Q1021 RJCC 231000Z 14013KT 9999 FEW020 BKN035 BKN/// 14/09 Q1021 RMK 1CU020 5CU035 A3015 RJCH 231000Z 12019KT 9999 FEW020 SCT170 BKN/// 17/13 Q1018 RJCK 231000Z 17010KT 9999 FEW010 BKN020 BKN/// 13/10 Q1025 RJCM 231000Z 21007KT 9999 FEW030 11/06 Q1023 RJDC 231000Z 06002KT 9999 FEW025 SCT100 17/17 Q1016 RJDT 231000Z 29005KT 250V320 9999 FEW020 17/13 Q1016 RJEC 231000Z 15010KT 9999 FEW020 SCT050 BKN/// 10/07 Q1021 RJFF 231000Z 14004KT 100V170 9999 FEW015 SCT045 18/15 Q1016 NOSIG RJFF 231000Z 14004KT 100V170 9999 FEW015 SCT045 18/15 Q1016 NOSIG RMK 1CU015 3CU045 A3001 RJFK 231000Z 01002KT CAVOK 16/16 Q1016 RJFK 231000Z 01002KT CAVOK 16/16 Q1016 RMK A3001 RJFM 231000Z 33006KT 9999 FEW010 SCT015 BKN025 21/19 Q1015 RJFO 231000Z VRB02KT 9999 FEW007 SCT015 BKN080 19/18 Q1016 RJFR 231000Z 19004KT 9999 FEW010 SCT050 BKN100 18/15 Q1016 RJFS 231000Z 30003KT 9999 FEW010 SCT050 BKN/// 16/16 Q1016 RJFT 231000Z 35006KT 0800 R07/P1800N FG BKN001 16/16 Q1016 RJFU 231000Z 15006KT 9999 FEW008 SCT010 BKN060 17/17 Q1016 RJGG 231000Z 35003KT 9999 FEW030 BKN100 BKN/// 18/12 Q1017 NOSIG RJKA 231000Z 30005KT 9999 -SHRA FEW025 BKN030 BKN040 21/20 Q1015 RJNK 231000Z 24006KT 9999 -RA FEW030 SCT080 OVC100 17/14 Q1017 RJNT 231000Z 22005KT 200V260 9999 -SHRA FEW030 BKN090 18/14 Q1016 RJNW 231000Z VRB01KT 5000 -SHRA BR FEW010 SCT050 BKN070 15/12 Q1016 RJOA 231000Z VRB01KT 4000 BCFG BR FEW000 SCT004 BKN020 15/14 Q1017 RJOB 231000Z 09004KT 2500 -SHRA BR BCFG FEW000 SCT010 BKN080 15/15 Q1017 RJOC 231000Z VRB02KT 9999 FEW005 SCT030 BKN070 17/15 Q1015 RJOH 231000Z 19002KT 9999 -RA FEW006 BKN050 OVC080 17/14 Q1016 RJOI 230955Z 31003KT 6000 BR BKN019 BKN025 OVC060 18/16 A3003 RMK SLP167 T01830161 RJOK 231000Z 33004KT 9999 -SHRA FEW005 SCT030 BKN040 17/16 Q1016 RJOM 231000Z 01004KT 330V040 9999 FEW006 SCT020 BKN120 18/17 Q1016 RJOO 231000Z 06005KT 030V110 9999 -RA FEW020 SCT060 OVC080 18/13 Q1017 RJOO 231000Z 06005KT 030V110 9999 -RA FEW020 SCT060 OVC080 18/13 Q1017 RMK 1CU020 3SC060 8AS080 A3004 RJOR 231000Z 21007KT 9999 -SHRA FEW030 SCT070 BKN090 17/16 Q1016 RJOT 231000Z 13003KT 8000 -SHRA FEW001 SCT025 BKN050 17/17 Q1017 RJOW 231000Z 17003KT 7000 -SHRA FEW005 SCT020 BKN035 17/17 Q1016 RJOY 231000Z 32003KT 9999 -SHRA FEW020 SCT070 BKN100 18/16 Q1016 RJSA 231000Z 15010KT 9999 FEW040 BKN/// 15/07 Q1018 RJSC 231000Z 10005KT 060V140 9999 FEW040 BKN060 BKN170 17/04 Q1020 RJSF 231000Z 29002KT 9999 FEW030 BKN040 13/11 Q1021 RJSI 231000Z VRB02KT 9999 FEW040 SCT060 BKN/// 12/10 Q1020 RJSK 231000Z 13010KT 9999 FEW030 SCT150 15/08 Q1018 RJSN 231000Z 15009KT 9999 FEW040 SCT140 BKN/// 18/10 Q1016 RJSR 231000Z VRB02KT 9999 FEW040 BKN/// 11/11 Q1018 RJSS 231000Z 31003KT 290V360 9999 FEW030 BKN050 BKN090 15/11 Q1020 RJSY 231000Z 09013KT 9999 FEW040 SCT080 16/09 Q1017 RJTT 231000Z 32007KT 9999 FEW020 BKN045 BKN170 16/13 Q1019 NOSIG RJTT 231000Z 32007KT 9999 FEW020 BKN045 BKN170 16/13 Q1019 NOSIG RMK 1CU020 5SC045 7AC170 A3011 RJTY 230956Z AUTO 35007KT 10SM OVC025 15/11 A3018 RMK AO2 SLP224 T01480106 FZRANO $ ROAH 231000Z 34006KT 9999 FEW025 SCT070 25/20 Q1015 ROAH 231000Z 34006KT 9999 FEW025 SCT070 25/20 Q1015 RMK 2CU025 4AC070 A2998 RODN 230956Z AUTO 32004KT 10SM CLR 24/20 A2999 RMK AO2 SLP162 T02420203 PWINO $ ROIG 231000Z VRB01KT 9999 FEW025 SCT080 24/21 Q1015 ROMY 231000Z 34004KT 300V010 9999 FEW025 SCT100 24/20 Q1015 RORS 231000Z 32005KT 9999 FEW020 SCT043 BKN100 24/20 Q1015 ROYN 231000Z AUTO 03018KT 9999 -RA FEW017 SCT038 BKN044 //////TCU 25/23 Q1015 RJNS 231000Z 01005KT 340V040 9999 FEW020 SCT140 BKN150 16/12 Q1018 ROTM 230956Z 34005KT 9999 SCT030 SCT080 24/21 A3000 RMK SLP145 STNPR29700 T02390211